sensor_id;sensor_type;location;lat;lon;timestamp;P1;durP1;ratioP1;P2;durP2;ratioP2
13704;SDS011;6924;52.122;9.952;2024-02-21T00:01:57;8.63;;;5.13;;
13704;SDS011;6924;52.122;9.952;2024-02-21T00:04:23;10.30;;;5.63;;
13704;SDS011;6924;52.122;9.952;2024-02-21T00:06:50;13.10;;;6.07;;
13704;SDS011;6924;52.122;9.952;2024-02-21T00:09:17;10.37;;;5.13;;
13704;SDS011;6924;52.122;9.952;2024-02-21T00:11:44;8.07;;;5.90;;
13704;SDS011;6924;52.122;9.952;2024-02-21T00:14:10;10.83;;;5.67;;
13704;SDS011;6924;52.122;9.952;2024-02-21T00:16:37;10.60;;;6.00;;
13704;SDS011;6924;52.122;9.952;2024-02-21T00:19:03;14.37;;;6.37;;
13704;SDS011;6924;52.122;9.952;2024-02-21T00:21:30;11.83;;;6.20;;
13704;SDS011;6924;52.122;9.952;2024-02-21T00:23:56;11.60;;;5.83;;
13704;SDS011;6924;52.122;9.952;2024-02-21T00:26:24;10.03;;;6.10;;
13704;SDS011;6924;52.122;9.952;2024-02-21T00:28:50;13.10;;;6.70;;
13704;SDS011;6924;52.122;9.952;2024-02-21T00:31:17;11.80;;;5.90;;
13704;SDS011;6924;52.122;9.952;2024-02-21T00:33:43;12.67;;;6.50;;
13704;SDS011;6924;52.122;9.952;2024-02-21T00:36:10;7.97;;;6.23;;
13704;SDS011;6924;52.122;9.952;2024-02-21T00:38:36;13.10;;;6.80;;
13704;SDS011;6924;52.122;9.952;2024-02-21T00:41:03;11.00;;;6.97;;
13704;SDS011;6924;52.122;9.952;2024-02-21T00:43:30;16.03;;;6.73;;
13704;SDS011;6924;52.122;9.952;2024-02-21T00:45:57;10.60;;;7.23;;
13704;SDS011;6924;52.122;9.952;2024-02-21T00:48:23;14.23;;;6.87;;
13704;SDS011;6924;52.122;9.952;2024-02-21T00:50:50;12.03;;;7.20;;
13704;SDS011;6924;52.122;9.952;2024-02-21T00:53:18;12.07;;;7.67;;
13704;SDS011;6924;52.122;9.952;2024-02-21T00:55:44;10.23;;;7.30;;
13704;SDS011;6924;52.122;9.952;2024-02-21T00:58:10;12.73;;;6.60;;
13704;SDS011;6924;52.122;9.952;2024-02-21T01:00:38;14.13;;;7.50;;
13704;SDS011;6924;52.122;9.952;2024-02-21T01:03:04;12.47;;;6.70;;
13704;SDS011;6924;52.122;9.952;2024-02-21T01:05:31;14.30;;;7.80;;
13704;SDS011;6924;52.122;9.952;2024-02-21T01:07:58;14.83;;;7.77;;
13704;SDS011;6924;52.122;9.952;2024-02-21T01:10:24;11.30;;;7.23;;
13704;SDS011;6924;52.122;9.952;2024-02-21T01:12:51;16.27;;;7.10;;
13704;SDS011;6924;52.122;9.952;2024-02-21T01:15:17;16.13;;;8.20;;
13704;SDS011;6924;52.122;9.952;2024-02-21T01:17:45;14.10;;;7.80;;
13704;SDS011;6924;52.122;9.952;2024-02-21T01:20:11;17.23;;;8.73;;
13704;SDS011;6924;52.122;9.952;2024-02-21T01:22:38;11.60;;;7.30;;
13704;SDS011;6924;52.122;9.952;2024-02-21T01:25:05;12.13;;;8.07;;
13704;SDS011;6924;52.122;9.952;2024-02-21T01:27:32;12.83;;;8.40;;
13704;SDS011;6924;52.122;9.952;2024-02-21T01:29:58;9.43;;;7.73;;
13704;SDS011;6924;52.122;9.952;2024-02-21T01:32:25;14.10;;;8.10;;
13704;SDS011;6924;52.122;9.952;2024-02-21T01:34:52;9.27;;;7.43;;
13704;SDS011;6924;52.122;9.952;2024-02-21T01:37:19;13.57;;;7.30;;
13704;SDS011;6924;52.122;9.952;2024-02-21T01:39:45;12.93;;;8.87;;
13704;SDS011;6924;52.122;9.952;2024-02-21T01:42:11;13.97;;;8.07;;
13704;SDS011;6924;52.122;9.952;2024-02-21T01:44:38;9.27;;;7.13;;
13704;SDS011;6924;52.122;9.952;2024-02-21T01:47:04;14.87;;;7.83;;
13704;SDS011;6924;52.122;9.952;2024-02-21T01:49:31;10.60;;;8.20;;
13704;SDS011;6924;52.122;9.952;2024-02-21T01:51:59;10.17;;;8.10;;
13704;SDS011;6924;52.122;9.952;2024-02-21T01:54:25;8.97;;;7.53;;
13704;SDS011;6924;52.122;9.952;2024-02-21T01:56:53;12.67;;;7.63;;
13704;SDS011;6924;52.122;9.952;2024-02-21T01:59:20;11.10;;;7.83;;
13704;SDS011;6924;52.122;9.952;2024-02-21T02:01:48;15.20;;;8.10;;
13704;SDS011;6924;52.122;9.952;2024-02-21T02:04:15;16.97;;;8.23;;
13704;SDS011;6924;52.122;9.952;2024-02-21T02:06:42;10.77;;;8.57;;
13704;SDS011;6924;52.122;9.952;2024-02-21T02:09:10;12.67;;;8.20;;
13704;SDS011;6924;52.122;9.952;2024-02-21T02:11:37;12.13;;;8.43;;
13704;SDS011;6924;52.122;9.952;2024-02-21T02:14:04;13.40;;;8.43;;
13704;SDS011;6924;52.122;9.952;2024-02-21T02:16:30;11.67;;;9.17;;
13704;SDS011;6924;52.122;9.952;2024-02-21T02:18:56;13.73;;;8.37;;
13704;SDS011;6924;52.122;9.952;2024-02-21T02:21:29;14.53;;;8.27;;
13704;SDS011;6924;52.122;9.952;2024-02-21T02:23:59;14.33;;;8.33;;
13704;SDS011;6924;52.122;9.952;2024-02-21T02:26:26;11.27;;;8.70;;
13704;SDS011;6924;52.122;9.952;2024-02-21T02:28:53;9.77;;;8.40;;
13704;SDS011;6924;52.122;9.952;2024-02-21T02:31:19;11.37;;;8.17;;
13704;SDS011;6924;52.122;9.952;2024-02-21T02:33:46;10.83;;;8.93;;
13704;SDS011;6924;52.122;9.952;2024-02-21T02:36:13;13.70;;;7.73;;
13704;SDS011;6924;52.122;9.952;2024-02-21T02:38:39;11.03;;;8.10;;
13704;SDS011;6924;52.122;9.952;2024-02-21T02:41:07;13.07;;;9.10;;
13704;SDS011;6924;52.122;9.952;2024-02-21T02:43:33;11.13;;;8.77;;
13704;SDS011;6924;52.122;9.952;2024-02-21T02:46:01;11.63;;;8.73;;
13704;SDS011;6924;52.122;9.952;2024-02-21T02:48:28;8.73;;;7.33;;
13704;SDS011;6924;52.122;9.952;2024-02-21T02:50:55;11.90;;;7.87;;
13704;SDS011;6924;52.122;9.952;2024-02-21T02:53:21;14.93;;;9.53;;
13704;SDS011;6924;52.122;9.952;2024-02-21T02:55:47;14.80;;;9.03;;
13704;SDS011;6924;52.122;9.952;2024-02-21T02:58:15;13.43;;;8.60;;
13704;SDS011;6924;52.122;9.952;2024-02-21T03:00:41;10.03;;;8.27;;
13704;SDS011;6924;52.122;9.952;2024-02-21T03:03:08;16.70;;;8.33;;
13704;SDS011;6924;52.122;9.952;2024-02-21T03:05:34;11.50;;;8.53;;
13704;SDS011;6924;52.122;9.952;2024-02-21T03:08:00;12.87;;;9.53;;
13704;SDS011;6924;52.122;9.952;2024-02-21T03:10:27;13.77;;;8.37;;
13704;SDS011;6924;52.122;9.952;2024-02-21T03:12:54;20.40;;;9.30;;
13704;SDS011;6924;52.122;9.952;2024-02-21T03:15:21;10.13;;;8.20;;
13704;SDS011;6924;52.122;9.952;2024-02-21T03:17:48;14.70;;;9.43;;
13704;SDS011;6924;52.122;9.952;2024-02-21T03:20:14;23.93;;;9.40;;
13704;SDS011;6924;52.122;9.952;2024-02-21T03:22:41;9.63;;;8.57;;
13704;SDS011;6924;52.122;9.952;2024-02-21T03:25:08;12.70;;;9.20;;
13704;SDS011;6924;52.122;9.952;2024-02-21T03:27:35;19.87;;;9.23;;
13704;SDS011;6924;52.122;9.952;2024-02-21T03:30:02;11.10;;;8.70;;
13704;SDS011;6924;52.122;9.952;2024-02-21T03:32:30;13.97;;;8.20;;
13704;SDS011;6924;52.122;9.952;2024-02-21T03:34:57;16.57;;;8.47;;
13704;SDS011;6924;52.122;9.952;2024-02-21T03:37:23;12.00;;;8.90;;
13704;SDS011;6924;52.122;9.952;2024-02-21T03:39:50;11.10;;;8.23;;
13704;SDS011;6924;52.122;9.952;2024-02-21T03:42:16;13.23;;;8.80;;
13704;SDS011;6924;52.122;9.952;2024-02-21T03:44:42;12.67;;;8.20;;
13704;SDS011;6924;52.122;9.952;2024-02-21T03:47:09;14.47;;;9.17;;
13704;SDS011;6924;52.122;9.952;2024-02-21T03:49:37;12.33;;;8.70;;
13704;SDS011;6924;52.122;9.952;2024-02-21T03:52:04;14.53;;;8.33;;
13704;SDS011;6924;52.122;9.952;2024-02-21T03:54:31;12.43;;;9.50;;
13704;SDS011;6924;52.122;9.952;2024-02-21T03:56:57;10.70;;;8.60;;
13704;SDS011;6924;52.122;9.952;2024-02-21T03:59:23;13.37;;;8.27;;
13704;SDS011;6924;52.122;9.952;2024-02-21T04:01:51;14.73;;;9.37;;
13704;SDS011;6924;52.122;9.952;2024-02-21T04:04:18;13.93;;;8.27;;
13704;SDS011;6924;52.122;9.952;2024-02-21T04:06:49;14.37;;;8.37;;
13704;SDS011;6924;52.122;9.952;2024-02-21T04:09:16;11.10;;;7.80;;
13704;SDS011;6924;52.122;9.952;2024-02-21T04:11:43;11.00;;;7.73;;
13704;SDS011;6924;52.122;9.952;2024-02-21T04:14:09;16.87;;;8.27;;
13704;SDS011;6924;52.122;9.952;2024-02-21T04:16:36;10.10;;;8.20;;
13704;SDS011;6924;52.122;9.952;2024-02-21T04:19:03;13.43;;;8.23;;
13704;SDS011;6924;52.122;9.952;2024-02-21T04:21:29;14.80;;;8.90;;
13704;SDS011;6924;52.122;9.952;2024-02-21T04:23:57;11.80;;;8.00;;
13704;SDS011;6924;52.122;9.952;2024-02-21T04:26:23;7.77;;;6.97;;
13704;SDS011;6924;52.122;9.952;2024-02-21T04:28:50;8.73;;;6.90;;
13704;SDS011;6924;52.122;9.952;2024-02-21T04:31:16;9.57;;;8.40;;
13704;SDS011;6924;52.122;9.952;2024-02-21T04:33:42;12.17;;;7.27;;
13704;SDS011;6924;52.122;9.952;2024-02-21T04:36:09;10.97;;;8.03;;
13704;SDS011;6924;52.122;9.952;2024-02-21T04:38:35;9.60;;;7.43;;
13704;SDS011;6924;52.122;9.952;2024-02-21T04:41:03;8.73;;;7.90;;
13704;SDS011;6924;52.122;9.952;2024-02-21T04:43:29;10.13;;;7.93;;
13704;SDS011;6924;52.122;9.952;2024-02-21T04:45:56;8.30;;;6.63;;
13704;SDS011;6924;52.122;9.952;2024-02-21T04:48:22;11.00;;;8.67;;
13704;SDS011;6924;52.122;9.952;2024-02-21T04:50:49;11.00;;;7.80;;
13704;SDS011;6924;52.122;9.952;2024-02-21T04:53:15;9.80;;;8.23;;
13704;SDS011;6924;52.122;9.952;2024-02-21T04:55:41;13.97;;;7.27;;
13704;SDS011;6924;52.122;9.952;2024-02-21T04:58:09;8.27;;;7.20;;
13704;SDS011;6924;52.122;9.952;2024-02-21T05:00:36;8.53;;;7.57;;
13704;SDS011;6924;52.122;9.952;2024-02-21T05:03:02;10.73;;;6.90;;
13704;SDS011;6924;52.122;9.952;2024-02-21T05:05:29;13.67;;;9.47;;
13704;SDS011;6924;52.122;9.952;2024-02-21T05:07:55;14.83;;;8.30;;
13704;SDS011;6924;52.122;9.952;2024-02-21T05:10:22;12.23;;;7.67;;
13704;SDS011;6924;52.122;9.952;2024-02-21T05:12:48;11.30;;;8.40;;
13704;SDS011;6924;52.122;9.952;2024-02-21T05:15:16;15.70;;;7.47;;
13704;SDS011;6924;52.122;9.952;2024-02-21T05:17:42;12.27;;;7.67;;
13704;SDS011;6924;52.122;9.952;2024-02-21T05:20:09;13.73;;;7.77;;
13704;SDS011;6924;52.122;9.952;2024-02-21T05:22:36;9.13;;;7.27;;
13704;SDS011;6924;52.122;9.952;2024-02-21T05:25:02;13.97;;;8.80;;
13704;SDS011;6924;52.122;9.952;2024-02-21T05:27:29;11.40;;;8.17;;
13704;SDS011;6924;52.122;9.952;2024-02-21T05:29:56;13.47;;;7.87;;
13704;SDS011;6924;52.122;9.952;2024-02-21T05:32:24;14.03;;;7.93;;
13704;SDS011;6924;52.122;9.952;2024-02-21T05:34:51;11.23;;;7.80;;
13704;SDS011;6924;52.122;9.952;2024-02-21T05:37:18;14.43;;;8.40;;
13704;SDS011;6924;52.122;9.952;2024-02-21T05:39:44;9.10;;;7.90;;
13704;SDS011;6924;52.122;9.952;2024-02-21T05:42:10;12.63;;;8.17;;
13704;SDS011;6924;52.122;9.952;2024-02-21T05:44:37;15.57;;;8.50;;
13704;SDS011;6924;52.122;9.952;2024-02-21T05:47:03;11.60;;;8.23;;
13704;SDS011;6924;52.122;9.952;2024-02-21T05:49:36;9.60;;;8.47;;
13704;SDS011;6924;52.122;9.952;2024-02-21T05:52:02;12.17;;;8.20;;
13704;SDS011;6924;52.122;9.952;2024-02-21T05:54:31;15.90;;;8.80;;
13704;SDS011;6924;52.122;9.952;2024-02-21T05:56:57;8.57;;;7.77;;
13704;SDS011;6924;52.122;9.952;2024-02-21T05:59:24;12.90;;;7.97;;
13704;SDS011;6924;52.122;9.952;2024-02-21T06:01:54;11.60;;;8.00;;
13704;SDS011;6924;52.122;9.952;2024-02-21T06:04:22;9.63;;;7.90;;
13704;SDS011;6924;52.122;9.952;2024-02-21T06:06:50;11.40;;;8.90;;
13704;SDS011;6924;52.122;9.952;2024-02-21T06:09:16;12.00;;;8.03;;
13704;SDS011;6924;52.122;9.952;2024-02-21T06:11:43;9.77;;;8.20;;
13704;SDS011;6924;52.122;9.952;2024-02-21T06:14:11;13.60;;;7.93;;
13704;SDS011;6924;52.122;9.952;2024-02-21T06:16:37;10.03;;;8.03;;
13704;SDS011;6924;52.122;9.952;2024-02-21T06:19:04;11.70;;;7.03;;
13704;SDS011;6924;52.122;9.952;2024-02-21T06:21:30;11.53;;;7.77;;
13704;SDS011;6924;52.122;9.952;2024-02-21T06:23:58;17.90;;;7.73;;
13704;SDS011;6924;52.122;9.952;2024-02-21T06:26:24;11.07;;;7.57;;
13704;SDS011;6924;52.122;9.952;2024-02-21T06:28:50;10.37;;;8.33;;
13704;SDS011;6924;52.122;9.952;2024-02-21T06:31:17;18.03;;;7.43;;
13704;SDS011;6924;52.122;9.952;2024-02-21T06:33:43;9.80;;;7.20;;
13704;SDS011;6924;52.122;9.952;2024-02-21T06:36:10;9.07;;;7.60;;
13704;SDS011;6924;52.122;9.952;2024-02-21T06:38:36;8.80;;;7.60;;
13704;SDS011;6924;52.122;9.952;2024-02-21T06:41:04;7.73;;;6.90;;
13704;SDS011;6924;52.122;9.952;2024-02-21T06:43:30;11.20;;;7.07;;
13704;SDS011;6924;52.122;9.952;2024-02-21T06:45:57;11.27;;;7.13;;
13704;SDS011;6924;52.122;9.952;2024-02-21T06:48:23;12.07;;;6.90;;
13704;SDS011;6924;52.122;9.952;2024-02-21T06:50:49;14.70;;;6.93;;
13704;SDS011;6924;52.122;9.952;2024-02-21T06:53:16;10.57;;;6.97;;
13704;SDS011;6924;52.122;9.952;2024-02-21T06:55:42;12.40;;;7.17;;
13704;SDS011;6924;52.122;9.952;2024-02-21T06:58:10;12.20;;;7.30;;
13704;SDS011;6924;52.122;9.952;2024-02-21T07:00:37;14.43;;;7.77;;
13704;SDS011;6924;52.122;9.952;2024-02-21T07:03:04;10.07;;;7.40;;
13704;SDS011;6924;52.122;9.952;2024-02-21T07:05:31;10.23;;;6.70;;
13704;SDS011;6924;52.122;9.952;2024-02-21T07:07:57;10.10;;;6.87;;
13704;SDS011;6924;52.122;9.952;2024-02-21T07:10:23;8.43;;;6.60;;
13704;SDS011;6924;52.122;9.952;2024-02-21T07:12:50;7.33;;;6.17;;
13704;SDS011;6924;52.122;9.952;2024-02-21T07:15:19;7.60;;;6.30;;
13704;SDS011;6924;52.122;9.952;2024-02-21T07:17:45;7.77;;;5.73;;
13704;SDS011;6924;52.122;9.952;2024-02-21T07:20:12;8.70;;;5.27;;
13704;SDS011;6924;52.122;9.952;2024-02-21T07:22:38;11.00;;;5.77;;
13704;SDS011;6924;52.122;9.952;2024-02-21T07:25:05;10.53;;;6.50;;
13704;SDS011;6924;52.122;9.952;2024-02-21T07:27:32;8.37;;;6.17;;
13704;SDS011;6924;52.122;9.952;2024-02-21T07:29:58;7.43;;;6.07;;
13704;SDS011;6924;52.122;9.952;2024-02-21T07:32:26;9.03;;;6.63;;
13704;SDS011;6924;52.122;9.952;2024-02-21T07:34:53;8.77;;;6.13;;
13704;SDS011;6924;52.122;9.952;2024-02-21T07:37:19;6.30;;;5.63;;
13704;SDS011;6924;52.122;9.952;2024-02-21T07:39:45;11.90;;;5.77;;
13704;SDS011;6924;52.122;9.952;2024-02-21T07:42:12;7.40;;;6.33;;
13704;SDS011;6924;52.122;9.952;2024-02-21T07:44:38;7.10;;;6.17;;
13704;SDS011;6924;52.122;9.952;2024-02-21T07:47:05;10.83;;;6.47;;
13704;SDS011;6924;52.122;9.952;2024-02-21T07:49:40;9.93;;;6.80;;
13704;SDS011;6924;52.122;9.952;2024-02-21T07:52:07;11.63;;;7.57;;
13704;SDS011;6924;52.122;9.952;2024-02-21T07:54:33;7.53;;;6.77;;
13704;SDS011;6924;52.122;9.952;2024-02-21T07:56:59;8.57;;;6.47;;
13704;SDS011;6924;52.122;9.952;2024-02-21T07:59:26;8.43;;;6.40;;
13704;SDS011;6924;52.122;9.952;2024-02-21T08:01:55;8.77;;;6.53;;
13704;SDS011;6924;52.122;9.952;2024-02-21T08:04:22;11.13;;;7.10;;
13704;SDS011;6924;52.122;9.952;2024-02-21T08:06:52;11.53;;;5.63;;
13704;SDS011;6924;52.122;9.952;2024-02-21T08:09:20;6.90;;;6.07;;
13704;SDS011;6924;52.122;9.952;2024-02-21T08:11:47;11.40;;;6.40;;
13704;SDS011;6924;52.122;9.952;2024-02-21T08:14:15;8.80;;;5.53;;
13704;SDS011;6924;52.122;9.952;2024-02-21T08:16:42;8.43;;;5.30;;
13704;SDS011;6924;52.122;9.952;2024-02-21T08:19:08;7.40;;;6.07;;
13704;SDS011;6924;52.122;9.952;2024-02-21T08:21:35;9.70;;;5.87;;
13704;SDS011;6924;52.122;9.952;2024-02-21T08:24:03;14.27;;;5.50;;
13704;SDS011;6924;52.122;9.952;2024-02-21T08:26:30;5.83;;;4.37;;
13704;SDS011;6924;52.122;9.952;2024-02-21T08:28:57;6.40;;;4.67;;
13704;SDS011;6924;52.122;9.952;2024-02-21T08:31:24;6.37;;;5.53;;
13704;SDS011;6924;52.122;9.952;2024-02-21T08:33:56;11.90;;;4.40;;
13704;SDS011;6924;52.122;9.952;2024-02-21T08:36:27;5.70;;;4.17;;
13704;SDS011;6924;52.122;9.952;2024-02-21T08:38:53;5.27;;;3.83;;
13704;SDS011;6924;52.122;9.952;2024-02-21T08:41:21;7.63;;;3.93;;
13704;SDS011;6924;52.122;9.952;2024-02-21T08:43:49;5.47;;;3.50;;
13704;SDS011;6924;52.122;9.952;2024-02-21T08:46:15;3.60;;;3.30;;
13704;SDS011;6924;52.122;9.952;2024-02-21T08:48:42;4.13;;;3.17;;
13704;SDS011;6924;52.122;9.952;2024-02-21T08:51:10;8.90;;;4.20;;
13704;SDS011;6924;52.122;9.952;2024-02-21T08:53:37;6.27;;;3.77;;
13704;SDS011;6924;52.122;9.952;2024-02-21T08:56:04;4.13;;;2.77;;
13704;SDS011;6924;52.122;9.952;2024-02-21T08:58:34;6.73;;;3.57;;
13704;SDS011;6924;52.122;9.952;2024-02-21T09:01:01;9.17;;;4.27;;
13704;SDS011;6924;52.122;9.952;2024-02-21T09:03:28;4.47;;;3.30;;
13704;SDS011;6924;52.122;9.952;2024-02-21T09:05:56;4.33;;;3.43;;
13704;SDS011;6924;52.122;9.952;2024-02-21T09:08:23;12.13;;;3.63;;
13704;SDS011;6924;52.122;9.952;2024-02-21T09:10:50;4.50;;;3.23;;
13704;SDS011;6924;52.122;9.952;2024-02-21T09:13:16;11.83;;;3.33;;
13704;SDS011;6924;52.122;9.952;2024-02-21T09:15:44;4.87;;;3.47;;
13704;SDS011;6924;52.122;9.952;2024-02-21T09:18:11;10.70;;;3.70;;
13704;SDS011;6924;52.122;9.952;2024-02-21T09:20:36;4.40;;;3.23;;
13704;SDS011;6924;52.122;9.952;2024-02-21T09:23:03;4.23;;;3.17;;
13704;SDS011;6924;52.122;9.952;2024-02-21T09:25:29;7.70;;;2.97;;
13704;SDS011;6924;52.122;9.952;2024-02-21T09:27:56;3.87;;;3.40;;
13704;SDS011;6924;52.122;9.952;2024-02-21T09:30:23;5.13;;;3.20;;
13704;SDS011;6924;52.122;9.952;2024-02-21T09:32:51;2.80;;;2.60;;
13704;SDS011;6924;52.122;9.952;2024-02-21T09:35:17;4.70;;;2.70;;
13704;SDS011;6924;52.122;9.952;2024-02-21T09:37:44;4.30;;;2.43;;
13704;SDS011;6924;52.122;9.952;2024-02-21T09:40:11;3.97;;;2.47;;
13704;SDS011;6924;52.122;9.952;2024-02-21T09:42:38;4.17;;;2.57;;
13704;SDS011;6924;52.122;9.952;2024-02-21T09:45:07;4.40;;;2.30;;
13704;SDS011;6924;52.122;9.952;2024-02-21T09:47:38;5.67;;;2.50;;
13704;SDS011;6924;52.122;9.952;2024-02-21T09:50:10;3.03;;;2.43;;
13704;SDS011;6924;52.122;9.952;2024-02-21T09:52:37;3.93;;;2.10;;
13704;SDS011;6924;52.122;9.952;2024-02-21T09:55:04;5.80;;;2.60;;
13704;SDS011;6924;52.122;9.952;2024-02-21T09:57:33;2.53;;;2.17;;
13704;SDS011;6924;52.122;9.952;2024-02-21T10:00:00;4.80;;;1.83;;
13704;SDS011;6924;52.122;9.952;2024-02-21T10:02:32;6.10;;;2.47;;
13704;SDS011;6924;52.122;9.952;2024-02-21T10:04:58;4.83;;;2.93;;
13704;SDS011;6924;52.122;9.952;2024-02-21T10:07:26;8.47;;;2.50;;
13704;SDS011;6924;52.122;9.952;2024-02-21T10:10:00;6.23;;;2.03;;
13704;SDS011;6924;52.122;9.952;2024-02-21T10:12:26;3.80;;;2.20;;
13704;SDS011;6924;52.122;9.952;2024-02-21T10:14:59;3.90;;;2.50;;
13704;SDS011;6924;52.122;9.952;2024-02-21T10:17:26;6.40;;;1.90;;
13704;SDS011;6924;52.122;9.952;2024-02-21T10:19:52;5.97;;;2.43;;
13704;SDS011;6924;52.122;9.952;2024-02-21T10:22:22;4.67;;;2.43;;
13704;SDS011;6924;52.122;9.952;2024-02-21T10:24:52;3.43;;;1.80;;
13704;SDS011;6924;52.122;9.952;2024-02-21T10:27:19;3.10;;;1.67;;
13704;SDS011;6924;52.122;9.952;2024-02-21T10:29:49;4.60;;;2.13;;
13704;SDS011;6924;52.122;9.952;2024-02-21T10:32:16;5.03;;;2.27;;
13704;SDS011;6924;52.122;9.952;2024-02-21T10:34:43;3.03;;;2.07;;
13704;SDS011;6924;52.122;9.952;2024-02-21T10:37:10;4.90;;;2.33;;
13704;SDS011;6924;52.122;9.952;2024-02-21T10:39:37;3.53;;;1.93;;
13704;SDS011;6924;52.122;9.952;2024-02-21T10:42:06;3.80;;;1.80;;
13704;SDS011;6924;52.122;9.952;2024-02-21T10:44:34;3.67;;;2.30;;
13704;SDS011;6924;52.122;9.952;2024-02-21T10:47:05;5.83;;;2.30;;
13704;SDS011;6924;52.122;9.952;2024-02-21T10:49:33;3.63;;;1.90;;
13704;SDS011;6924;52.122;9.952;2024-02-21T10:52:06;5.50;;;2.30;;
13704;SDS011;6924;52.122;9.952;2024-02-21T10:54:40;3.30;;;1.80;;
13704;SDS011;6924;52.122;9.952;2024-02-21T10:57:16;4.87;;;2.10;;
13704;SDS011;6924;52.122;9.952;2024-02-21T10:59:44;3.67;;;2.10;;
13704;SDS011;6924;52.122;9.952;2024-02-21T11:02:11;3.03;;;1.80;;
13704;SDS011;6924;52.122;9.952;2024-02-21T11:04:37;5.20;;;2.10;;
13704;SDS011;6924;52.122;9.952;2024-02-21T11:07:07;5.10;;;2.27;;
13704;SDS011;6924;52.122;9.952;2024-02-21T11:09:35;5.97;;;2.17;;
13704;SDS011;6924;52.122;9.952;2024-02-21T11:12:03;7.20;;;2.20;;
13704;SDS011;6924;52.122;9.952;2024-02-21T11:14:31;4.20;;;1.97;;
13704;SDS011;6924;52.122;9.952;2024-02-21T11:17:00;3.23;;;2.03;;
13704;SDS011;6924;52.122;9.952;2024-02-21T11:19:28;3.67;;;2.00;;
13704;SDS011;6924;52.122;9.952;2024-02-21T11:21:56;5.43;;;2.77;;
13704;SDS011;6924;52.122;9.952;2024-02-21T11:24:26;4.47;;;2.13;;
13704;SDS011;6924;52.122;9.952;2024-02-21T11:26:54;5.00;;;2.53;;
13704;SDS011;6924;52.122;9.952;2024-02-21T11:29:22;4.47;;;2.43;;
13704;SDS011;6924;52.122;9.952;2024-02-21T11:31:51;3.60;;;2.03;;
13704;SDS011;6924;52.122;9.952;2024-02-21T11:34:18;3.67;;;1.87;;
13704;SDS011;6924;52.122;9.952;2024-02-21T11:36:48;3.17;;;1.87;;
13704;SDS011;6924;52.122;9.952;2024-02-21T11:39:22;2.63;;;1.87;;
13704;SDS011;6924;52.122;9.952;2024-02-21T11:42:02;3.87;;;2.50;;
13704;SDS011;6924;52.122;9.952;2024-02-21T11:44:30;4.57;;;3.20;;
13704;SDS011;6924;52.122;9.952;2024-02-21T11:46:59;3.67;;;3.20;;
13704;SDS011;6924;52.122;9.952;2024-02-21T11:49:25;5.77;;;3.80;;
13704;SDS011;6924;52.122;9.952;2024-02-21T11:51:57;5.57;;;3.97;;
13704;SDS011;6924;52.122;9.952;2024-02-21T11:54:25;3.87;;;3.47;;
13704;SDS011;6924;52.122;9.952;2024-02-21T11:56:51;4.27;;;3.77;;
13704;SDS011;6924;52.122;9.952;2024-02-21T11:59:17;4.60;;;4.17;;
13704;SDS011;6924;52.122;9.952;2024-02-21T12:01:44;4.13;;;3.73;;
13704;SDS011;6924;52.122;9.952;2024-02-21T12:04:12;6.27;;;4.80;;
13704;SDS011;6924;52.122;9.952;2024-02-21T12:06:38;4.53;;;3.97;;
13704;SDS011;6924;52.122;9.952;2024-02-21T12:09:07;5.83;;;4.80;;
13704;SDS011;6924;52.122;9.952;2024-02-21T12:11:33;5.17;;;4.17;;
13704;SDS011;6924;52.122;9.952;2024-02-21T12:14:00;6.47;;;4.20;;
13704;SDS011;6924;52.122;9.952;2024-02-21T12:16:28;5.50;;;4.30;;
13704;SDS011;6924;52.122;9.952;2024-02-21T12:18:55;5.27;;;4.50;;
13704;SDS011;6924;52.122;9.952;2024-02-21T12:21:24;5.00;;;4.50;;
13704;SDS011;6924;52.122;9.952;2024-02-21T12:23:53;5.20;;;4.60;;
13704;SDS011;6924;52.122;9.952;2024-02-21T12:26:19;6.07;;;5.00;;
13704;SDS011;6924;52.122;9.952;2024-02-21T12:28:46;5.93;;;4.90;;
13704;SDS011;6924;52.122;9.952;2024-02-21T12:31:12;6.87;;;4.40;;
13704;SDS011;6924;52.122;9.952;2024-02-21T12:33:41;6.97;;;4.53;;
13704;SDS011;6924;52.122;9.952;2024-02-21T12:36:07;7.03;;;4.80;;
13704;SDS011;6924;52.122;9.952;2024-02-21T12:38:36;5.33;;;4.53;;
13704;SDS011;6924;52.122;9.952;2024-02-21T12:41:02;5.97;;;4.47;;
13704;SDS011;6924;52.122;9.952;2024-02-21T12:43:29;4.97;;;4.47;;
13704;SDS011;6924;52.122;9.952;2024-02-21T12:45:55;4.30;;;3.97;;
13704;SDS011;6924;52.122;9.952;2024-02-21T12:48:22;6.30;;;4.43;;
13704;SDS011;6924;52.122;9.952;2024-02-21T12:50:49;4.30;;;3.77;;
13704;SDS011;6924;52.122;9.952;2024-02-21T12:53:16;8.40;;;3.73;;
13704;SDS011;6924;52.122;9.952;2024-02-21T12:55:45;4.07;;;3.20;;
13704;SDS011;6924;52.122;9.952;2024-02-21T12:58:11;3.23;;;2.67;;
13704;SDS011;6924;52.122;9.952;2024-02-21T13:00:38;4.90;;;3.33;;
13704;SDS011;6924;52.122;9.952;2024-02-21T13:03:05;4.30;;;2.83;;
13704;SDS011;6924;52.122;9.952;2024-02-21T13:05:32;3.27;;;2.70;;
13704;SDS011;6924;52.122;9.952;2024-02-21T13:07:58;3.60;;;2.37;;
13704;SDS011;6924;52.122;9.952;2024-02-21T13:10:24;5.30;;;2.80;;
13704;SDS011;6924;52.122;9.952;2024-02-21T13:12:52;4.93;;;2.63;;
13704;SDS011;6924;52.122;9.952;2024-02-21T13:15:19;5.30;;;3.40;;
13704;SDS011;6924;52.122;9.952;2024-02-21T13:17:46;3.97;;;2.17;;
13704;SDS011;6924;52.122;9.952;2024-02-21T13:20:13;2.97;;;2.20;;
13704;SDS011;6924;52.122;9.952;2024-02-21T13:22:39;2.73;;;1.80;;
13704;SDS011;6924;52.122;9.952;2024-02-21T13:25:06;2.83;;;1.70;;
13704;SDS011;6924;52.122;9.952;2024-02-21T13:27:33;2.83;;;2.10;;
13704;SDS011;6924;52.122;9.952;2024-02-21T13:30:01;5.50;;;2.00;;
13704;SDS011;6924;52.122;9.952;2024-02-21T13:32:30;4.23;;;1.93;;
13704;SDS011;6924;52.122;9.952;2024-02-21T13:34:57;2.47;;;1.80;;
13704;SDS011;6924;52.122;9.952;2024-02-21T13:37:26;3.23;;;2.10;;
13704;SDS011;6924;52.122;9.952;2024-02-21T13:39:53;4.03;;;1.93;;
13704;SDS011;6924;52.122;9.952;2024-02-21T13:42:21;3.73;;;1.60;;
13704;SDS011;6924;52.122;9.952;2024-02-21T13:44:48;3.03;;;1.80;;
13704;SDS011;6924;52.122;9.952;2024-02-21T13:47:16;2.33;;;1.30;;
13704;SDS011;6924;52.122;9.952;2024-02-21T13:49:43;4.07;;;1.77;;
13704;SDS011;6924;52.122;9.952;2024-02-21T13:52:09;2.47;;;1.30;;
13704;SDS011;6924;52.122;9.952;2024-02-21T13:54:36;2.43;;;1.40;;
13704;SDS011;6924;52.122;9.952;2024-02-21T13:57:02;6.50;;;1.60;;
13704;SDS011;6924;52.122;9.952;2024-02-21T13:59:29;3.50;;;1.33;;
13704;SDS011;6924;52.122;9.952;2024-02-21T14:01:55;3.60;;;1.70;;
13704;SDS011;6924;52.122;9.952;2024-02-21T14:04:23;1.77;;;1.27;;
13704;SDS011;6924;52.122;9.952;2024-02-21T14:06:50;2.27;;;1.43;;
13704;SDS011;6924;52.122;9.952;2024-02-21T14:09:17;1.73;;;1.37;;
13704;SDS011;6924;52.122;9.952;2024-02-21T14:11:44;2.07;;;1.27;;
13704;SDS011;6924;52.122;9.952;2024-02-21T14:14:10;2.17;;;1.50;;
13704;SDS011;6924;52.122;9.952;2024-02-21T14:16:37;3.17;;;1.30;;
13704;SDS011;6924;52.122;9.952;2024-02-21T14:19:03;2.13;;;1.40;;
13704;SDS011;6924;52.122;9.952;2024-02-21T14:21:31;5.67;;;1.47;;
13704;SDS011;6924;52.122;9.952;2024-02-21T14:23:57;4.43;;;1.33;;
13704;SDS011;6924;52.122;9.952;2024-02-21T14:26:26;2.77;;;1.37;;
13704;SDS011;6924;52.122;9.952;2024-02-21T14:28:53;2.67;;;1.30;;
13704;SDS011;6924;52.122;9.952;2024-02-21T14:31:19;2.13;;;1.30;;
13704;SDS011;6924;52.122;9.952;2024-02-21T14:33:46;4.47;;;1.67;;
13704;SDS011;6924;52.122;9.952;2024-02-21T14:36:12;1.80;;;1.10;;
13704;SDS011;6924;52.122;9.952;2024-02-21T14:38:41;4.03;;;2.20;;
13704;SDS011;6924;52.122;9.952;2024-02-21T14:41:08;3.13;;;1.63;;
13704;SDS011;6924;52.122;9.952;2024-02-21T14:43:37;2.37;;;1.30;;
13704;SDS011;6924;52.122;9.952;2024-02-21T14:46:03;2.80;;;1.30;;
13704;SDS011;6924;52.122;9.952;2024-02-21T14:48:30;4.00;;;1.50;;
13704;SDS011;6924;52.122;9.952;2024-02-21T14:50:57;2.63;;;1.07;;
13704;SDS011;6924;52.122;9.952;2024-02-21T14:53:24;3.37;;;1.73;;
13704;SDS011;6924;52.122;9.952;2024-02-21T14:55:52;3.93;;;1.40;;